Time;durP1;ratioP1;P1;durP2;ratioP2;P2;SDS_P1;SDS_P2;PMS_P1;PMS_P2;Temp;Humidity;BMP_temperature;BMP_pressure;BME280_temperature;BME280_humidity;BME280_pressure;Samples;Min_cycle;Max_cycle;Signal;HPM_P1;HPM_P2
2022/05/29 00:00:25;;;;;;;4.20;3.78;;;14.70;77.80;;;;;;4980375;28;95661;-63
2022/05/29 00:02:55;;;;;;;5.63;4.20;;;14.80;77.70;;;;;;4985690;28;95376;-63
2022/05/29 00:05:26;;;;;;;;;;;14.80;77.50;;;;;;4986164;28;95946;-63
2022/05/29 00:07:56;;;;;;;4.85;3.70;;;14.80;77.40;;;;;;4985303;28;95741;-63
2022/05/29 00:10:27;;;;;;;4.80;3.60;;;14.90;77.30;;;;;;4984644;28;95596;-64
2022/05/29 00:12:59;;;;;;;5.28;3.88;;;14.90;77.20;;;;;;4985294;28;95509;-64
2022/05/29 00:15:30;;;;;;;5.15;3.88;;;15.00;77.10;;;;;;4977266;28;95982;-64
2022/05/29 00:18:02;;;;;;;4.43;3.33;;;15.00;77.00;;;;;;4983361;28;96080;-62
2022/05/29 00:20:36;;;;;;;3.92;3.60;;;15.00;76.90;;;;;;4985363;28;95281;-61
2022/05/29 00:23:08;;;;;;;4.78;4.30;;;15.10;76.90;;;;;;4983054;28;95934;-63
2022/05/29 00:25:41;;;;;;;3.85;3.47;;;15.00;76.60;;;;;;4983362;28;96753;-64
2022/05/29 00:28:13;;;;;;;4.30;3.35;;;15.10;76.60;;;;;;4984328;28;96177;-64
2022/05/29 00:30:45;;;;;;;3.88;3.47;;;15.10;76.40;;;;;;4980225;28;95956;-64
2022/05/29 00:33:17;;;;;;;3.83;3.47;;;15.10;76.40;;;;;;4968875;28;95711;-64
2022/05/29 00:35:47;;;;;;;;;;;15.10;76.30;;;;;;4984939;28;96706;-64
2022/05/29 00:38:17;;;;;;;4.65;4.10;;;15.10;76.20;;;;;;4986595;28;97292;-65
2022/05/29 00:41:01;;;;;;;4.32;3.92;;;15.20;76.10;;;;;;4983484;28;95844;-65
2022/05/29 00:43:32;;;;;;;3.78;3.00;;;15.20;76.10;;;;;;4983224;28;95380;-64
2022/05/29 00:46:06;;;;;;;4.18;3.75;;;15.20;75.90;;;;;;4973758;28;96767;-65
2022/05/29 00:48:37;;;;;;;4.50;3.53;;;15.20;75.90;;;;;;4983752;28;98281;-64
2022/05/29 00:51:14;;;;;;;3.17;2.88;;;15.20;75.70;;;;;;4986044;28;95751;-64
2022/05/29 00:53:45;;;;;;;3.88;3.42;;;15.20;75.60;;;;;;4983079;28;96069;-65
2022/05/29 00:56:19;;;;;;;3.55;3.25;;;15.30;75.50;;;;;;4984966;28;96098;-63
2022/05/29 00:58:50;;;;;;;3.72;3.17;;;15.30;75.40;;;;;;4982660;28;95657;-62
2022/05/29 01:01:23;;;;;;;3.70;3.13;;;15.30;75.40;;;;;;4977666;28;95801;-64
2022/05/29 01:03:55;;;;;;;3.30;2.95;;;15.30;75.30;;;;;;4966556;28;95768;-63
2022/05/29 01:06:25;;;;;;;5.45;3.42;;;15.40;75.20;;;;;;4983949;28;96001;-63
2022/05/29 01:08:55;;;;;;;3.17;2.88;;;15.30;75.00;;;;;;4984503;28;95938;-62
2022/05/29 01:11:44;;;;;;;3.37;3.07;;;15.40;74.90;;;;;;4984195;28;95581;-63
2022/05/29 01:14:30;;;;;;;4.55;3.25;;;15.40;75.00;;;;;;4983151;28;95486;-63
2022/05/29 01:17:24;;;;;;;3.40;2.95;;;15.50;74.90;;;;;;4976287;28;96065;-63
2022/05/29 01:20:21;;;;;;;3.08;2.70;;;15.50;74.80;;;;;;4981916;28;95899;-63
2022/05/29 01:23:09;;;;;;;3.03;2.72;;;15.50;74.70;;;;;;4980955;28;95748;-63
2022/05/29 01:25:54;;;;;;;4.45;2.90;;;15.50;74.60;;;;;;4980053;28;95781;-63
2022/05/29 01:28:36;;;;;;;3.55;2.50;;;15.60;74.60;;;;;;4984763;28;96033;-63
2022/05/29 01:31:16;;;;;;;2.90;2.63;;;15.60;74.60;;;;;;4981437;28;95805;-63
2022/05/29 01:34:18;;;;;;;3.40;2.90;;;15.70;74.60;;;;;;4986636;28;95571;-63
2022/05/29 01:37:10;;;;;;;3.10;2.80;;;15.60;74.50;;;;;;4985596;28;95467;-64
2022/05/29 01:40:04;;;;;;;3.03;2.72;;;15.70;74.50;;;;;;4986617;28;96072;-63
2022/05/29 01:42:46;;;;;;;3.03;2.72;;;15.70;74.40;;;;;;4987281;28;95958;-63
2022/05/29 01:45:56;;;;;;;2.95;2.58;;;15.70;74.30;;;;;;4988755;28;95702;-64
2022/05/29 01:48:37;;;;;;;2.70;2.38;;;15.80;74.40;;;;;;4983095;28;95870;-64
2022/05/29 01:51:59;;;;;;;2.53;2.33;;;15.80;74.40;;;;;;4986227;28;95930;-63
2022/05/29 01:54:38;;;;;;;2.40;2.17;;;15.80;74.30;;;;;;4946612;28;95897;-65
2022/05/29 01:57:27;;;;;;;3.05;2.50;;;15.80;74.30;;;;;;4987026;28;95527;-63
2022/05/29 02:00:09;;;;;;;2.45;2.25;;;15.90;74.40;;;;;;4990000;28;96006;-62
2022/05/29 02:03:05;;;;;;;2.33;2.13;;;15.90;74.40;;;;;;4985544;28;101553;-63
2022/05/29 02:05:45;;;;;;;2.85;2.60;;;15.90;74.40;;;;;;4985902;28;95875;-63
2022/05/29 02:08:33;;;;;;;2.38;2.17;;;15.90;74.20;;;;;;4983679;28;95716;-62
2022/05/29 02:11:08;;;;;;;2.90;2.70;;;15.90;74.30;;;;;;4987127;28;96079;-63
2022/05/29 02:13:48;;;;;;;2.30;2.10;;;15.90;74.30;;;;;;4987916;28;95989;-63
2022/05/29 02:16:41;;;;;;;2.50;2.30;;;15.90;74.20;;;;;;4980258;28;96186;-63
2022/05/29 02:19:32;;;;;;;2.50;2.30;;;16.00;74.20;;;;;;4984919;28;95891;-63
2022/05/29 02:22:25;;;;;;;2.30;2.10;;;16.00;74.30;;;;;;4986874;28;95413;-63
2022/05/29 02:25:07;;;;;;;2.50;2.22;;;16.00;74.30;;;;;;4984657;28;96609;-62
2022/05/29 02:27:50;;;;;;;2.42;2.13;;;16.00;74.20;;;;;;4989501;28;95894;-63
2022/05/29 02:30:25;;;;;;;2.38;2.17;;;16.00;74.20;;;;;;4988987;28;95735;-62
2022/05/29 02:33:07;;;;;;;2.30;2.10;;;16.10;74.20;;;;;;4986406;28;95887;-63
2022/05/29 02:36:24;;;;;;;2.47;2.08;;;16.10;74.20;;;;;;4990096;28;95896;-63
2022/05/29 02:39:12;;;;;;;1.92;1.80;;;16.10;74.10;;;;;;4986794;28;96262;-63
2022/05/29 02:42:23;;;;;;;2.63;2.00;;;16.10;74.10;;;;;;4987071;28;96074;-63
2022/05/29 02:45:15;;;;;;;2.00;1.80;;;16.10;74.00;;;;;;4980604;28;95841;-64
2022/05/29 02:48:04;;;;;;;;;;;16.20;74.00;;;;;;4988073;28;96161;-63
2022/05/29 02:50:44;;;;;;;2.22;1.88;;;16.20;74.00;;;;;;4991617;28;95580;-63
2022/05/29 02:53:17;;;;;;;2.33;1.83;;;16.20;73.90;;;;;;4989157;28;95680;-62
2022/05/29 02:55:48;;;;;;;4.10;2.33;;;16.20;73.90;;;;;;4990595;28;95861;-63
2022/05/29 02:58:27;;;;;;;3.40;2.13;;;16.20;73.90;;;;;;4987894;28;96624;-63
2022/05/29 03:01:35;;;;;;;1.80;1.70;;;16.30;73.90;;;;;;4981277;28;96514;-63
2022/05/29 03:04:37;;;;;;;2.53;1.92;;;16.30;73.80;;;;;;4941154;28;95747;-63
2022/05/29 03:07:46;;;;;;;1.77;1.63;;;16.30;73.80;;;;;;4946525;28;95515;-63
2022/05/29 03:10:30;;;;;;;2.15;1.95;;;16.30;73.80;;;;;;4943851;28;96006;-63
2022/05/29 03:13:23;;;;;;;2.10;1.90;;;16.40;73.80;;;;;;4944064;28;95392;-63
2022/05/29 03:16:30;;;;;;;1.73;1.55;;;16.30;73.70;;;;;;4938277;28;95821;-63
2022/05/29 03:19:30;;;;;;;1.88;1.67;;;16.40;73.70;;;;;;4934292;28;96652;-63
2022/05/29 03:22:12;;;;;;;2.70;2.15;;;16.40;73.70;;;;;;4929461;28;96734;-63
2022/05/29 03:25:21;;;;;;;1.75;1.58;;;16.40;73.70;;;;;;4942757;28;95553;-62
2022/05/29 03:27:53;;;;;;;1.90;1.80;;;16.50;73.70;;;;;;4928670;28;96065;-63
2022/05/29 03:30:36;;;;;;;2.30;1.70;;;16.50;73.70;;;;;;4934509;28;96016;-63
2022/05/29 03:33:09;;;;;;;2.03;1.83;;;16.50;73.60;;;;;;4943360;28;95851;-63
2022/05/29 03:36:04;;;;;;;1.60;1.50;;;16.50;73.60;;;;;;4979232;28;95523;-63
2022/05/29 03:38:38;;;;;;;1.45;1.35;;;16.50;73.50;;;;;;4987696;28;95682;-62
2022/05/29 03:41:45;;;;;;;1.67;1.58;;;16.50;73.50;;;;;;4986495;28;95248;-61
2022/05/29 03:44:18;;;;;;;1.55;1.45;;;16.60;73.50;;;;;;4987474;28;95866;-62
2022/05/29 03:46:51;;;;;;;1.83;1.67;;;16.60;73.50;;;;;;4981627;28;96810;-62
2022/05/29 03:49:24;;;;;;;1.77;1.52;;;16.60;73.30;;;;;;4983869;28;95842;-62
2022/05/29 03:51:57;;;;;;;2.00;1.58;;;16.60;73.60;;;;;;4983372;28;95456;-62
2022/05/29 03:54:29;;;;;;;2.20;1.73;;;16.60;73.70;;;;;;4984606;28;96137;-62
2022/05/29 03:57:00;;;;;;;2.42;2.00;;;16.60;73.70;;;;;;4988755;28;98168;-61
2022/05/29 03:59:31;;;;;;;2.40;1.90;;;16.60;73.70;;;;;;4990361;28;95425;-62
2022/05/29 04:02:02;;;;;;;5.63;1.73;;;16.60;73.70;;;;;;4982607;28;95922;-62
2022/05/29 04:04:33;;;;;;;2.20;1.83;;;16.60;73.70;;;;;;4985820;28;96908;-62
2022/05/29 04:07:03;;;;;;;2.30;2.10;;;16.60;73.70;;;;;;4985778;28;96003;-62
2022/05/29 04:12:25;;;;;;;2.13;1.80;;;16.70;73.70;;;;;;4988016;28;96497;-62
2022/05/29 04:14:57;;;;;;;5.15;2.25;;;16.60;73.70;;;;;;4963041;28;96382;-62
2022/05/29 04:17:29;;;;;;;3.35;2.05;;;16.70;73.60;;;;;;4970172;28;95480;-44
2022/05/29 04:20:01;;;;;;;2.38;2.17;;;16.60;74.10;;;;;;4983151;28;95818;-58
2022/05/29 04:22:32;;;;;;;2.55;2.03;;;16.70;74.00;;;;;;4981583;28;96085;-59
2022/05/29 04:25:03;;;;;;;3.08;1.88;;;16.80;74.00;;;;;;4982917;28;96391;-61
2022/05/29 04:27:33;;;;;;;1.80;1.67;;;16.80;74.00;;;;;;4984157;28;96191;-62
2022/05/29 04:30:07;;;;;;;2.70;2.20;;;16.70;74.10;;;;;;4983889;28;95777;-62
2022/05/29 04:35:29;;;;;;;1.77;1.67;;;16.70;74.10;;;;;;4983542;28;96918;-62
2022/05/29 04:37:59;;;;;;;2.30;1.80;;;16.60;74.00;;;;;;4979655;28;95889;-62
2022/05/29 04:40:32;;;;;;;2.53;2.05;;;16.60;74.00;;;;;;4982035;28;95809;-62
2022/05/29 04:43:02;;;;;;;1.98;1.73;;;16.60;74.00;;;;;;4983204;28;95907;-62
2022/05/29 04:45:34;;;;;;;2.15;1.95;;;16.70;74.00;;;;;;4979305;28;95847;-62
2022/05/29 04:48:05;;;;;;;2.00;1.70;;;16.70;74.10;;;;;;4955338;28;102261;-62
2022/05/29 04:50:38;;;;;;;3.78;2.05;;;16.60;73.90;;;;;;4958474;28;95935;-63
2022/05/29 04:53:10;;;;;;;2.20;2.00;;;16.70;73.90;;;;;;4958118;28;95968;-61
2022/05/29 04:55:42;;;;;;;2.85;1.75;;;16.60;73.80;;;;;;4960774;28;96261;-61
2022/05/29 04:58:12;;;;;;;2.20;2.00;;;16.70;73.80;;;;;;4958797;28;95622;-62
2022/05/29 05:00:42;;;;;;;2.42;2.00;;;16.70;73.90;;;;;;4951989;28;95657;-62
2022/05/29 05:03:13;;;;;;;2.92;2.00;;;16.70;73.80;;;;;;4965865;28;98032;-63
2022/05/29 05:05:47;;;;;;;2.17;1.98;;;16.70;73.80;;;;;;4962841;28;96423;-62
2022/05/29 05:08:18;;;;;;;2.53;2.00;;;16.70;72.00;;;;;;4965468;28;95741;-62
2022/05/29 05:10:49;;;;;;;2.45;2.10;;;16.70;73.70;;;;;;4964154;28;95418;-63
2022/05/29 05:13:24;;;;;;;3.00;2.00;;;16.60;73.70;;;;;;4962033;28;97181;-62
2022/05/29 05:16:03;;;;;;;1.95;1.75;;;16.70;73.80;;;;;;4960712;28;96239;-63
2022/05/29 05:18:35;;;;;;;2.78;2.22;;;16.60;73.80;;;;;;4965616;28;95655;-62
2022/05/29 05:21:07;;;;;;;2.70;1.63;;;16.60;73.80;;;;;;4966937;28;95901;-63
2022/05/29 05:23:40;;;;;;;2.75;2.40;;;16.60;74.50;;;;;;4967663;28;95959;-62
2022/05/29 05:26:15;;;;;;;4.25;2.63;;;16.70;73.80;;;;;;4967130;28;96616;-62
2022/05/29 05:28:50;;;;;;;2.47;2.10;;;16.70;73.80;;;;;;4965132;28;96007;-63
2022/05/29 05:31:21;;;;;;;2.20;1.90;;;16.70;73.80;;;;;;4961432;28;95666;-63
2022/05/29 05:33:51;;;;;;;2.58;2.08;;;16.70;73.80;;;;;;4968518;28;95870;-63
2022/05/29 05:36:22;;;;;;;2.05;1.85;;;16.70;74.00;;;;;;4968078;28;96860;-63
2022/05/29 05:38:53;;;;;;;2.47;2.20;;;16.60;73.90;;;;;;4968367;28;101007;-62
2022/05/29 05:41:23;;;;;;;1.63;1.52;;;16.60;73.90;;;;;;4962863;28;95830;-62
2022/05/29 05:43:54;;;;;;;2.30;1.70;;;16.60;74.00;;;;;;4966496;28;96096;-62
2022/05/29 05:46:25;;;;;;;2.28;2.08;;;16.60;74.00;;;;;;4959408;28;96723;-62
2022/05/29 05:48:57;;;;;;;2.20;2.00;;;16.60;73.90;;;;;;4950449;28;96313;-61
2022/05/29 05:51:27;;;;;;;;;;;16.60;73.90;;;;;;4968611;28;96035;-62
2022/05/29 05:54:00;;;;;;;3.25;2.28;;;16.70;74.10;;;;;;4966431;28;96213;-61
2022/05/29 05:56:31;;;;;;;2.63;2.13;;;16.80;74.00;;;;;;4964164;28;96457;-62
2022/05/29 05:59:05;;;;;;;2.40;2.20;;;16.80;73.90;;;;;;4964190;28;95667;-62
2022/05/29 06:01:36;;;;;;;2.55;2.10;;;16.90;73.90;;;;;;4958199;28;95807;-60
2022/05/29 06:04:11;;;;;;;2.35;2.15;;;16.90;73.80;;;;;;4965255;28;95813;-62
2022/05/29 06:06:41;;;;;;;5.90;3.50;;;17.00;73.70;;;;;;4968690;28;96435;-61
2022/05/29 06:09:13;;;;;;;5.70;3.58;;;17.00;73.70;;;;;;4967255;28;95735;-61
2022/05/29 06:11:44;;;;;;;3.45;2.63;;;17.00;73.60;;;;;;4965084;28;95774;-61
2022/05/29 06:14:15;;;;;;;4.53;3.35;;;17.00;73.80;;;;;;4961433;28;96417;-61
2022/05/29 06:16:47;;;;;;;5.03;3.28;;;17.10;73.90;;;;;;4959147;28;95908;-49
2022/05/29 06:19:19;;;;;;;6.95;3.88;;;17.10;73.60;;;;;;4964199;28;95879;-59
2022/05/29 06:21:50;;;;;;;4.63;3.35;;;17.20;73.60;;;;;;4965019;28;95961;-59
2022/05/29 06:24:20;;;;;;;5.55;3.42;;;17.30;73.30;;;;;;4965923;28;95391;-59
2022/05/29 06:26:55;;;;;;;7.13;4.78;;;17.40;73.20;;;;;;4965740;28;96482;-58
2022/05/29 06:29:27;;;;;;;7.60;5.03;;;17.40;73.10;;;;;;4964732;28;96100;-57
2022/05/29 06:32:04;;;;;;;7.70;5.32;;;17.50;73.10;;;;;;4958500;28;96919;-57
2022/05/29 06:34:36;;;;;;;8.35;5.47;;;17.50;73.00;;;;;;4965436;28;96030;-56
2022/05/29 06:37:08;;;;;;;4.85;4.13;;;17.50;72.90;;;;;;4957793;28;96178;-57
2022/05/29 06:39:38;;;;;;;8.02;5.57;;;17.50;73.10;;;;;;4966113;28;95781;-55
2022/05/29 06:42:08;;;;;;;6.17;4.50;;;17.50;73.10;;;;;;4964776;28;95657;-58
2022/05/29 06:44:40;;;;;;;7.45;4.60;;;17.50;73.20;;;;;;4940432;28;96240;-59
2022/05/29 06:47:14;;;;;;;6.38;4.82;;;17.60;73.20;;;;;;4957581;28;96126;-58
2022/05/29 06:49:51;;;;;;;5.63;4.72;;;17.60;73.20;;;;;;4969247;28;95742;-57
2022/05/29 06:52:22;;;;;;;7.38;5.80;;;17.70;73.30;;;;;;4965842;28;96337;-59
2022/05/29 06:54:54;;;;;;;8.15;6.32;;;17.80;73.50;;;;;;4967236;28;95742;-58
2022/05/29 06:57:44;;;;;;;7.40;5.47;;;17.80;73.50;;;;;;4968542;28;96532;-60
2022/05/29 07:08:55;;;;;;;8.00;5.65;;;17.90;73.40;;;;;;4966526;28;96822;-59
2022/05/29 07:11:34;;;;;;;7.35;5.22;;;17.90;73.40;;;;;;4966195;28;95652;-59
2022/05/29 07:14:06;;;;;;;7.45;5.47;;;17.90;73.20;;;;;;4960332;28;95921;-57
2022/05/29 07:16:38;;;;;;;7.00;4.65;;;17.90;73.20;;;;;;4954879;28;95728;-59
2022/05/29 07:19:09;;;;;;;6.05;5.10;;;17.90;73.00;;;;;;4986224;28;96277;-59
2022/05/29 07:21:41;;;;;;;6.40;5.05;;;17.90;72.90;;;;;;4986517;28;95918;-58
2022/05/29 07:24:12;;;;;;;6.97;4.88;;;17.90;72.80;;;;;;4983961;28;95823;-57
2022/05/29 07:26:49;;;;;;;8.55;4.38;;;17.90;72.80;;;;;;4984121;28;95844;-59
2022/05/29 07:29:22;;;;;;;5.90;4.57;;;17.90;72.60;;;;;;4969451;28;96210;-59
2022/05/29 07:31:54;;;;;;;5.10;3.85;;;17.90;72.60;;;;;;4981240;28;97457;-59
2022/05/29 07:34:24;;;;;;;;;;;17.80;72.40;;;;;;4986891;28;95732;-59
2022/05/29 07:37:01;;;;;;;6.47;4.57;;;17.90;72.50;;;;;;4987945;28;95284;-58
2022/05/29 07:39:37;;;;;;;5.75;4.30;;;17.80;72.40;;;;;;4983323;28;96473;-59
2022/05/29 07:44:59;;;;;;;6.43;4.38;;;17.90;72.30;;;;;;4985881;28;95519;-54
2022/05/29 07:47:40;;;;;;;4.18;3.70;;;17.80;72.00;;;;;;4964647;28;96036;-54
2022/05/29 07:50:17;;;;;;;5.33;3.73;;;17.80;72.00;;;;;;4967438;28;95883;-55
2022/05/29 07:52:52;;;;;;;5.00;3.83;;;17.80;72.00;;;;;;4966281;28;95942;-56
2022/05/29 07:55:26;;;;;;;5.55;3.88;;;17.90;72.00;;;;;;4966421;28;95895;-56
2022/05/29 07:57:56;;;;;;;5.53;3.90;;;17.90;71.90;;;;;;4965463;28;96291;-55
2022/05/29 08:00:26;;;;;;;6.25;3.28;;;17.80;71.80;;;;;;4958186;28;96728;-54
2022/05/29 08:02:57;;;;;;;6.47;3.72;;;17.90;71.80;;;;;;4963016;28;104157;-54
2022/05/29 08:05:31;;;;;;;4.22;3.28;;;17.80;71.80;;;;;;4965721;28;95517;-55
2022/05/29 08:08:04;;;;;;;4.55;3.83;;;17.80;71.70;;;;;;4964630;28;95866;-56
2022/05/29 08:10:34;;;;;;;4.80;3.50;;;17.80;71.90;;;;;;4959609;28;96635;-56
2022/05/29 08:13:07;;;;;;;5.03;3.72;;;17.80;72.30;;;;;;4961623;28;96043;-55
2022/05/29 08:15:39;;;;;;;4.85;4.07;;;17.80;72.30;;;;;;4952416;28;95855;-56
2022/05/29 08:18:11;;;;;;;7.15;4.03;;;17.90;71.70;;;;;;4965562;28;95783;-54
2022/05/29 08:20:44;;;;;;;6.25;4.00;;;17.90;71.50;;;;;;4965645;28;95919;-54
2022/05/29 08:23:18;;;;;;;4.93;4.00;;;17.90;71.30;;;;;;4965248;28;95779;-56
2022/05/29 08:31:35;;;;;;;4.85;3.75;;;17.90;71.60;;;;;;4925099;28;96756;-53
2022/05/29 08:34:05;;;;;;;5.80;3.30;;;17.90;71.50;;;;;;4967015;28;95682;-52
2022/05/29 08:36:36;;;;;;;11.02;4.75;;;18.00;72.10;;;;;;4968189;28;95736;-53
2022/05/29 08:39:06;;;;;;;13.52;7.47;;;18.00;71.40;;;;;;4967100;28;95230;-54
2022/05/29 08:41:46;;;;;;;33.92;18.05;;;18.00;71.50;;;;;;4968698;28;96611;-54
2022/05/29 08:44:29;;;;;;;108.00;61.28;;;18.00;71.70;;;;;;4966971;28;96044;-51
2022/05/29 08:47:04;;;;;;;163.90;100.78;;;18.00;71.80;;;;;;4977630;28;95688;-55
2022/05/29 08:49:47;;;;;;;229.35;122.97;;;18.00;72.00;;;;;;4985989;28;95713;-54
2022/05/29 08:52:41;;;;;;;296.45;161.95;;;17.90;72.10;;;;;;4986047;28;96109;-54
2022/05/29 08:55:21;;;;;;;362.58;201.25;;;17.90;72.10;;;;;;4969065;28;96068;-54
2022/05/29 08:58:27;;;;;;;413.33;248.38;;;17.90;72.10;;;;;;4986960;28;96628;-52
2022/05/29 09:01:10;;;;;;;438.40;276.83;;;17.90;72.00;;;;;;4980891;28;98166;-51
2022/05/29 09:03:52;;;;;;;446.75;295.40;;;17.80;72.00;;;;;;4985904;28;96353;-51
2022/05/29 09:06:35;;;;;;;443.40;289.77;;;17.80;72.00;;;;;;4983062;28;95736;-52
2022/05/29 09:09:36;;;;;;;433.38;287.38;;;17.80;71.90;;;;;;4974951;28;95311;-55
2022/05/29 09:12:15;;;;;;;408.17;262.07;;;17.70;71.70;;;;;;4974157;28;95601;-55
2022/05/29 09:15:14;;;;;;;399.48;263.58;;;17.60;71.70;;;;;;4981972;28;96524;-55
2022/05/29 09:17:53;;;;;;;382.23;251.25;;;17.70;71.70;;;;;;4982992;28;98004;-54
2022/05/29 09:20:38;;;;;;;352.35;241.40;;;17.60;71.60;;;;;;4985475;28;96978;-56
2022/05/29 09:23:20;;;;;;;358.13;237.93;;;17.60;71.50;;;;;;4983880;28;96045;-54
2022/05/29 09:25:52;;;;;;;337.00;225.85;;;17.60;71.30;;;;;;4983894;28;95938;-54
2022/05/29 09:28:36;;;;;;;321.45;215.70;;;17.50;71.40;;;;;;4984680;28;96066;-54
2022/05/29 09:31:15;;;;;;;302.25;208.20;;;17.50;71.30;;;;;;4978570;28;96638;-54
2022/05/29 09:33:48;;;;;;;302.85;198.38;;;17.50;71.30;;;;;;4982911;28;95893;-50
2022/05/29 09:36:23;;;;;;;299.98;203.85;;;17.40;71.20;;;;;;4984281;28;96033;-55
2022/05/29 09:39:05;;;;;;;279.33;188.27;;;17.40;71.30;;;;;;4982537;28;95730;-54
2022/05/29 09:41:48;;;;;;;289.58;185.25;;;17.40;71.30;;;;;;4982977;28;95875;-56
2022/05/29 09:44:23;;;;;;;256.20;174.18;;;17.40;71.30;;;;;;4983838;28;95840;-59
2022/05/29 09:46:55;;;;;;;255.13;173.07;;;17.30;71.30;;;;;;4982072;28;98406;-54
2022/05/29 09:49:49;;;;;;;244.20;161.10;;;17.30;71.30;;;;;;4988917;28;95851;-54
2022/05/29 09:52:28;;;;;;;214.60;149.25;;;17.30;71.30;;;;;;4985811;28;97906;-54
2022/05/29 09:55:18;;;;;;;218.07;147.63;;;17.20;71.20;;;;;;4987808;28;96184;-54
2022/05/29 09:58:10;;;;;;;213.10;145.63;;;17.20;71.20;;;;;;4988647;28;96921;-55
2022/05/29 10:00:52;;;;;;;206.98;136.32;;;17.20;71.30;;;;;;4977738;28;95845;-55
2022/05/29 10:03:41;;;;;;;187.77;130.13;;;17.10;71.30;;;;;;4985212;28;95473;-51
2022/05/29 10:06:26;;;;;;;173.27;126.68;;;17.10;71.40;;;;;;4989195;28;95798;-53
2022/05/29 10:09:10;;;;;;;170.27;117.22;;;17.00;71.20;;;;;;4988651;28;96136;-54
2022/05/29 10:11:53;;;;;;;158.90;112.85;;;17.00;71.40;;;;;;4987563;28;96173;-51
2022/05/29 10:14:27;;;;;;;172.45;116.15;;;17.00;71.40;;;;;;4985951;28;95843;-53
2022/05/29 10:16:57;;;;;;;152.63;110.35;;;16.90;71.40;;;;;;4979180;28;95895;-53
2022/05/29 10:19:38;;;;;;;139.43;95.00;;;16.90;71.70;;;;;;4984758;28;95918;-53
2022/05/29 10:22:37;;;;;;;134.38;88.82;;;16.90;71.30;;;;;;4986149;28;96024;-54
2022/05/29 10:25:23;;;;;;;111.30;80.50;;;17.00;71.30;;;;;;4986587;28;98027;-52
2022/05/29 10:27:57;;;;;;;112.72;75.68;;;17.00;71.00;;;;;;4987255;28;96978;-55
2022/05/29 10:30:34;;;;;;;102.10;68.60;;;17.00;71.50;;;;;;4977390;28;96199;-56
2022/05/29 10:33:10;;;;;;;96.28;65.70;;;17.00;70.70;;;;;;4982787;28;95850;-55
2022/05/29 10:35:41;;;;;;;102.68;67.60;;;17.00;70.60;;;;;;4982729;28;95803;-56
2022/05/29 10:38:25;;;;;;;88.40;62.42;;;16.90;70.50;;;;;;4983368;28;95612;-55
2022/05/29 10:40:59;;;;;;;86.00;56.03;;;16.90;70.30;;;;;;4979558;28;97129;-54
2022/05/29 10:43:46;;;;;;;78.95;56.60;;;16.90;70.40;;;;;;4980834;28;96876;-55
2022/05/29 10:46:38;;;;;;;76.63;53.50;;;16.90;70.40;;;;;;4973886;28;95316;-53
2022/05/29 10:49:39;;;;;;;76.93;50.88;;;16.90;70.30;;;;;;4984122;28;96074;-56
2022/05/29 10:52:37;;;;;;;68.53;49.20;;;16.90;70.20;;;;;;4967071;28;95812;-55
2022/05/29 10:55:20;;;;;;;74.25;52.20;;;16.90;70.10;;;;;;4989232;28;95829;-56
2022/05/29 10:57:53;;;;;;;67.18;49.38;;;16.80;70.10;;;;;;4983171;28;95543;-56
2022/05/29 11:00:51;;;;;;;64.35;45.65;;;16.70;70.10;;;;;;4981978;28;95512;-54
2022/05/29 11:03:43;;;;;;;63.25;44.72;;;16.70;70.30;;;;;;4983507;28;102136;-56
2022/05/29 11:06:37;;;;;;;63.65;44.53;;;16.60;70.20;;;;;;4987284;28;97063;-57
2022/05/29 11:09:26;;;;;;;65.47;42.55;;;16.60;70.30;;;;;;4984733;28;95839;-56
2022/05/29 11:12:17;;;;;;;60.97;42.92;;;16.50;70.40;;;;;;4985001;28;95574;-57
2022/05/29 11:15:07;;;;;;;60.78;40.63;;;16.50;70.30;;;;;;4985175;28;96025;-53
2022/05/29 11:17:56;;;;;;;52.13;39.45;;;16.40;70.40;;;;;;4980391;28;95462;-56
2022/05/29 11:20:51;;;;;;;51.42;37.60;;;16.40;70.40;;;;;;4984573;28;96194;-52
2022/05/29 11:23:32;;;;;;;54.35;35.40;;;16.30;70.50;;;;;;4980635;28;95777;-53
2022/05/29 11:26:36;;;;;;;58.22;36.03;;;16.30;70.50;;;;;;4978266;28;96243;-52
2022/05/29 11:29:08;;;;;;;49.63;34.30;;;16.30;70.50;;;;;;4977874;28;95876;-50
2022/05/29 11:32:22;;;;;;;46.22;34.00;;;16.20;70.40;;;;;;4974606;28;95635;-53
2022/05/29 11:35:27;;;;;;;45.15;32.42;;;16.20;70.60;;;;;;4987335;28;95813;-53
2022/05/29 11:38:36;;;;;;;48.00;33.78;;;16.20;70.50;;;;;;4985127;28;96855;-55
2022/05/29 11:41:18;;;;;;;49.10;33.55;;;16.10;70.50;;;;;;4985580;28;95922;-56
2022/05/29 11:43:56;;;;;;;44.75;31.83;;;16.10;70.60;;;;;;4986656;28;95611;-53
2022/05/29 11:52:59;;;;;;;38.60;29.60;;;15.90;70.70;;;;;;4985226;28;95935;-53
2022/05/29 11:55:36;;;;;;;42.58;29.30;;;15.90;70.70;;;;;;4985575;28;95539;-55
2022/05/29 11:58:22;;;;;;;40.03;28.70;;;15.80;70.80;;;;;;4985777;28;95861;-50
2022/05/29 12:00:59;;;;;;;36.75;28.48;;;15.80;70.70;;;;;;4966089;28;97226;-54
2022/05/29 12:03:37;;;;;;;39.25;26.08;;;15.80;69.30;;;;;;4966573;28;96411;-54
2022/05/29 12:06:44;;;;;;;33.33;24.92;;;15.90;71.60;;;;;;4964079;28;95305;-56
2022/05/29 12:09:23;;;;;;;32.80;23.90;;;16.00;71.70;;;;;;4963337;28;95900;-44
2022/05/29 12:12:13;;;;;;;32.40;22.73;;;16.10;71.80;;;;;;4957629;28;96712;-56
2022/05/29 12:14:59;;;;;;;33.17;24.17;;;16.10;71.40;;;;;;4960578;28;95779;-53
2022/05/29 12:17:38;;;;;;;31.63;22.90;;;16.20;71.50;;;;;;4967096;28;97783;-54
2022/05/29 12:20:35;;;;;;;29.35;22.25;;;16.20;71.40;;;;;;4975081;28;96390;-53
2022/05/29 12:23:20;;;;;;;33.20;23.95;;;16.30;71.40;;;;;;4975632;28;96520;-54
2022/05/29 12:26:16;;;;;;;28.08;20.85;;;16.30;71.10;;;;;;4975853;28;95852;-54
2022/05/29 12:29:13;;;;;;;29.30;21.58;;;16.30;71.10;;;;;;4975965;28;96035;-55
2022/05/29 12:31:50;;;;;;;28.70;21.58;;;16.30;71.00;;;;;;4970587;28;96047;-55
2022/05/29 12:34:31;;;;;;;29.55;21.42;;;16.30;71.10;;;;;;4977856;28;96576;-57
2022/05/29 12:37:22;;;;;;;29.05;21.58;;;16.30;71.10;;;;;;4975548;28;95716;-57
2022/05/29 12:40:24;;;;;;;27.27;21.47;;;16.30;71.10;;;;;;4977407;28;95652;-58
2022/05/29 12:43:03;;;;;;;29.27;22.63;;;16.30;71.10;;;;;;4977158;28;95903;-46
2022/05/29 12:45:46;;;;;;;29.73;20.95;;;16.30;71.20;;;;;;4972435;28;96569;-54
2022/05/29 12:48:24;;;;;;;27.38;20.27;;;16.30;71.60;;;;;;4980956;28;95647;-60
2022/05/29 12:51:07;;;;;;;26.88;20.02;;;16.40;72.00;;;;;;4982034;28;95200;-56
2022/05/29 12:53:41;;;;;;;24.70;18.95;;;16.50;72.20;;;;;;4983143;28;95360;-61
2022/05/29 12:56:27;;;;;;;25.10;18.88;;;16.50;72.30;;;;;;4982859;28;95843;-60
2022/05/29 12:59:20;;;;;;;21.15;18.20;;;16.70;72.30;;;;;;4981507;28;98376;-55
2022/05/29 13:02:29;;;;;;;22.65;17.63;;;16.80;72.30;;;;;;4975717;28;96236;-54
2022/05/29 13:05:04;;;;;;;22.60;17.70;;;16.90;72.10;;;;;;4961615;28;96598;-53
2022/05/29 13:08:05;;;;;;;21.67;17.35;;;17.00;72.10;;;;;;4979895;28;95883;-54
2022/05/29 13:10:40;;;;;;;21.92;16.92;;;17.10;71.90;;;;;;4982210;28;96498;-50
2022/05/29 13:13:31;;;;;;;20.83;16.05;;;17.10;71.90;;;;;;4980523;28;95275;-56
2022/05/29 13:16:38;;;;;;;19.10;15.18;;;17.20;71.90;;;;;;4978534;28;96785;-56
2022/05/29 13:19:14;;;;;;;21.58;16.63;;;17.30;71.70;;;;;;4985526;28;96211;-53
2022/05/29 13:22:02;;;;;;;17.15;14.25;;;17.40;71.80;;;;;;4984749;28;95892;-56
2022/05/29 13:24:36;;;;;;;19.83;14.43;;;17.40;71.70;;;;;;4986364;28;96376;-48
2022/05/29 13:27:12;;;;;;;17.08;13.85;;;17.50;71.70;;;;;;4987193;28;95648;-57
2022/05/29 13:29:46;;;;;;;17.50;14.30;;;17.50;71.50;;;;;;4987501;28;95918;-54
2022/05/29 13:32:24;;;;;;;21.48;14.00;;;17.60;71.50;;;;;;4968335;28;95324;-61
2022/05/29 13:34:56;;;;;;;18.48;14.38;;;17.60;71.50;;;;;;4964428;28;95846;-55
2022/05/29 13:37:42;;;;;;;18.50;13.32;;;17.70;71.40;;;;;;4967069;28;95387;-56
2022/05/29 13:40:30;;;;;;;16.17;12.77;;;17.80;71.40;;;;;;4966482;28;96426;-59
2022/05/29 13:43:16;;;;;;;15.07;11.43;;;17.80;71.20;;;;;;4968162;28;97917;-61
2022/05/29 13:45:48;;;;;;;14.93;11.57;;;18.00;71.00;;;;;;4963914;28;96006;-61
2022/05/29 13:48:26;;;;;;;15.93;12.90;;;18.00;70.80;;;;;;4970088;28;95971;-63
2022/05/29 13:50:59;;;;;;;15.80;12.82;;;18.00;70.80;;;;;;4969541;28;97256;-50
2022/05/29 13:53:38;;;;;;;14.55;11.98;;;18.10;70.30;;;;;;4967849;28;96549;-55
2022/05/29 13:56:14;;;;;;;13.00;10.85;;;18.20;70.80;;;;;;4969077;28;95305;-58
2022/05/29 14:04:54;;;;;;;13.05;11.30;;;18.40;70.30;;;;;;4967140;28;96146;-55
2022/05/29 14:07:33;;;;;;;12.20;9.82;;;18.40;70.30;;;;;;4966537;28;95414;-59
2022/05/29 14:10:30;;;;;;;12.07;10.50;;;18.40;68.50;;;;;;4966299;28;95838;-58
2022/05/29 14:13:07;;;;;;;11.20;10.00;;;18.40;70.40;;;;;;4964802;28;95980;-52
2022/05/29 14:15:39;;;;;;;10.40;9.27;;;18.40;70.60;;;;;;4954043;28;95827;-52
2022/05/29 14:18:19;;;;;;;13.35;10.57;;;18.40;70.40;;;;;;4965634;28;95629;-58